createdAt,value
2018-02-14T00:01:23.030Z,47.40
2018-02-14T00:03:51.331Z,47.50
2018-02-14T00:06:19.638Z,47.50
2018-02-14T00:08:49.156Z,47.50
2018-02-14T00:11:17.447Z,47.60
2018-02-14T00:13:46.415Z,47.60
2018-02-14T00:16:14.727Z,47.70
2018-02-14T00:18:43.768Z,47.90
2018-02-14T00:21:12.057Z,47.80
2018-02-14T00:23:40.346Z,47.80
2018-02-14T00:26:08.612Z,47.90
2018-02-14T00:28:36.924Z,48.00
2018-02-14T00:31:05.206Z,48.00
2018-02-14T00:33:34.167Z,48.00
2018-02-14T00:36:02.449Z,48.10
2018-02-14T00:38:30.749Z,47.80
2018-02-14T00:41:00.218Z,48.10
2018-02-14T00:43:28.500Z,48.10
2018-02-14T00:45:56.785Z,48.10
2018-02-14T00:48:26.113Z,48.10
2018-02-14T00:50:54.395Z,48.40
2018-02-14T00:53:22.698Z,48.30
2018-02-14T00:55:51.263Z,48.20
2018-02-14T00:58:19.524Z,48.30
2018-02-14T01:00:48.604Z,48.40
2018-02-14T01:03:16.869Z,48.30
2018-02-14T01:05:45.173Z,48.40
2018-02-14T01:08:13.865Z,48.40
2018-02-14T01:10:42.908Z,48.50
2018-02-14T01:13:11.202Z,48.60
2018-02-14T01:15:39.481Z,48.60
2018-02-14T01:18:07.767Z,48.40
2018-02-14T01:20:50.799Z,48.50
2018-02-14T01:23:19.080Z,48.50
2018-02-14T01:25:48.110Z,48.50
2018-02-14T01:28:16.407Z,48.40
2018-02-14T01:30:44.915Z,48.50
2018-02-14T01:33:13.179Z,48.50
2018-02-14T01:35:41.469Z,48.60
2018-02-14T01:38:09.733Z,48.60
2018-02-14T01:40:38.047Z,48.60
2018-02-14T01:43:07.099Z,48.70
2018-02-14T01:45:35.389Z,48.70
2018-02-14T01:48:03.693Z,48.80
2018-02-14T01:50:38.983Z,48.80
2018-02-14T01:53:07.241Z,48.70
2018-02-14T01:55:36.260Z,48.90
2018-02-14T01:58:04.636Z,48.90
2018-02-14T02:00:33.045Z,48.90
2018-02-14T02:03:01.338Z,48.90
2018-02-14T02:05:29.608Z,49.00
2018-02-14T02:07:57.890Z,49.00
2018-02-14T02:10:26.171Z,49.00
2018-02-14T02:12:54.476Z,49.00
2018-02-14T02:15:23.509Z,49.00
2018-02-14T02:17:51.829Z,49.00
2018-02-14T02:20:20.089Z,49.00
2018-02-14T02:22:48.360Z,49.60
2018-02-14T02:25:16.639Z,49.00
2018-02-14T02:27:44.919Z,48.90
2018-02-14T02:30:14.149Z,49.00
2018-02-14T02:32:43.176Z,49.00
2018-02-14T02:35:11.492Z,49.00
2018-02-14T02:37:39.756Z,49.00
2018-02-14T02:40:19.757Z,49.60
2018-02-14T02:42:48.047Z,49.00
2018-02-14T02:45:17.092Z,49.10
2018-02-14T02:47:45.398Z,49.00
2018-02-14T02:50:14.700Z,49.20
2018-02-14T02:52:43.013Z,49.30
2018-02-14T02:55:11.284Z,49.10
2018-02-14T02:57:39.575Z,49.10
2018-02-14T03:00:07.828Z,49.10
2018-02-14T03:02:36.894Z,49.20
2018-02-14T03:05:05.172Z,49.20
2018-02-14T03:07:33.478Z,49.20
2018-02-14T03:10:02.508Z,49.20
2018-02-14T03:12:30.801Z,49.20
2018-02-14T03:14:59.069Z,49.30
2018-02-14T03:17:27.339Z,49.20
2018-02-14T03:19:55.620Z,49.20
2018-02-14T03:22:23.894Z,49.30
2018-02-14T03:24:52.234Z,49.30
2018-02-14T03:27:20.490Z,49.30
2018-02-14T03:29:48.818Z,49.30
2018-02-14T03:32:17.094Z,49.30
2018-02-14T03:34:45.391Z,49.30
2018-02-14T03:37:13.859Z,49.40
2018-02-14T03:39:42.295Z,49.50
2018-02-14T03:42:10.558Z,49.40
2018-02-14T03:44:39.600Z,49.50
2018-02-14T03:47:07.892Z,49.50
2018-02-14T03:49:36.167Z,49.40
2018-02-14T03:52:04.466Z,49.50
2018-02-14T03:54:32.749Z,49.60
2018-02-14T03:57:01.054Z,49.50
2018-02-14T03:59:29.316Z,49.50
2018-02-14T04:01:57.626Z,49.50
2018-02-14T04:04:26.670Z,49.50
2018-02-14T04:06:54.941Z,49.40
2018-02-14T04:09:23.233Z,49.50
2018-02-14T04:11:51.492Z,49.50
2018-02-14T04:14:19.802Z,49.50
2018-02-14T04:16:48.087Z,49.50
2018-02-14T04:19:16.372Z,49.60
2018-02-14T04:21:44.648Z,49.50
2018-02-14T04:24:13.224Z,49.50
2018-02-14T04:26:41.621Z,49.50
2018-02-14T04:29:09.861Z,49.50
2018-02-14T04:31:38.136Z,49.50
2018-02-14T04:34:06.488Z,49.60
2018-02-14T04:36:34.789Z,49.70
2018-02-14T04:39:03.056Z,49.80
2018-02-14T04:41:31.342Z,49.60
2018-02-14T04:43:59.618Z,49.70
2018-02-14T04:46:27.921Z,50.30
2018-02-14T04:48:56.197Z,49.70
2018-02-14T04:51:24.496Z,49.90
2018-02-14T04:53:52.768Z,50.30
2018-02-14T04:56:21.042Z,49.80
2018-02-14T04:58:49.337Z,49.80
2018-02-14T05:01:18.388Z,49.80
2018-02-14T05:03:46.664Z,49.80
2018-02-14T05:06:14.942Z,49.80
2018-02-14T05:08:43.263Z,49.70
2018-02-14T05:11:11.505Z,49.70
2018-02-14T05:13:39.817Z,49.70
2018-02-14T05:16:08.098Z,49.70
2018-02-14T05:18:36.406Z,49.70
2018-02-14T05:21:04.719Z,49.70
2018-02-14T05:23:32.994Z,49.70
2018-02-14T05:26:01.287Z,49.60
2018-02-14T05:28:29.574Z,49.60
2018-02-14T05:30:57.860Z,49.60
2018-02-14T05:33:26.141Z,49.60
2018-02-14T05:35:54.560Z,49.70
2018-02-14T05:38:22.820Z,49.70
2018-02-14T05:40:52.067Z,49.70
2018-02-14T05:43:20.724Z,49.70
2018-02-14T05:45:49.002Z,49.70
2018-02-14T05:48:17.296Z,49.80
2018-02-14T05:50:45.563Z,49.80
2018-02-14T05:53:13.894Z,49.90
2018-02-14T05:55:42.169Z,50.10
2018-02-14T05:58:10.456Z,49.90
2018-02-14T06:00:38.732Z,49.90
2018-02-14T06:03:07.039Z,50.00
2018-02-14T06:05:36.090Z,50.10
2018-02-14T06:08:04.381Z,50.00
2018-02-14T06:10:32.656Z,50.10
2018-02-14T06:13:00.933Z,50.10
2018-02-14T06:16:09.260Z,50.00
2018-02-14T06:18:37.521Z,50.10
2018-02-14T06:21:16.719Z,49.90
2018-02-14T06:23:57.590Z,50.00
2018-02-14T06:26:25.914Z,49.90
2018-02-14T06:28:54.193Z,50.00
2018-02-14T06:31:22.501Z,50.00
2018-02-14T06:33:50.778Z,50.00
2018-02-14T06:36:19.074Z,50.10
2018-02-14T06:38:47.344Z,50.00
2018-02-14T06:41:15.667Z,50.00
2018-02-14T06:43:43.934Z,50.10
2018-02-14T06:46:12.201Z,50.10
2018-02-14T06:48:40.520Z,50.20
2018-02-14T06:51:08.808Z,50.30
2018-02-14T06:53:37.146Z,50.50
2018-02-14T06:56:05.570Z,50.40
2018-02-14T06:58:34.632Z,50.30
2018-02-14T07:01:02.900Z,50.40
2018-02-14T07:03:31.500Z,50.40
2018-02-14T07:05:59.787Z,50.50
2018-02-14T07:08:28.063Z,50.40
2018-02-14T07:10:56.357Z,50.40
2018-02-14T07:13:25.405Z,50.60
2018-02-14T07:15:53.717Z,50.50
2018-02-14T07:18:22.070Z,50.50
2018-02-14T07:20:50.359Z,50.50
2018-02-14T07:23:24.349Z,50.60
2018-02-14T07:25:52.637Z,50.70
2018-02-14T07:28:20.920Z,50.60
2018-02-14T07:30:49.206Z,50.70
2018-02-14T07:33:17.501Z,50.80
2018-02-14T07:35:46.093Z,50.80
2018-02-14T07:38:14.410Z,50.90
2018-02-14T07:40:42.733Z,51.00
2018-02-14T07:43:11.022Z,51.10
2018-02-14T07:45:39.317Z,51.20
2018-02-14T07:48:07.608Z,51.40
2018-02-14T07:50:35.875Z,51.40
2018-02-14T07:53:04.194Z,51.40
2018-02-14T07:55:32.501Z,51.50
2018-02-14T07:58:00.776Z,51.60
2018-02-14T08:00:29.050Z,52.10
2018-02-14T08:02:57.352Z,51.60
2018-02-14T08:05:26.429Z,51.70
2018-02-14T08:07:54.705Z,51.60
2018-02-14T08:10:22.985Z,51.70
2018-02-14T08:12:51.276Z,51.80
2018-02-14T08:15:19.890Z,51.80
2018-02-14T08:17:48.490Z,51.80
2018-02-14T08:20:16.760Z,52.00
2018-02-14T08:22:46.060Z,52.00
2018-02-14T08:25:14.340Z,52.00
2018-02-14T08:27:42.653Z,52.00
2018-02-14T08:30:10.913Z,52.00
2018-02-14T08:32:39.223Z,51.90
2018-02-14T08:35:07.482Z,51.80
2018-02-14T08:37:35.757Z,51.90
2018-02-14T08:40:04.019Z,52.00
2018-02-14T08:42:33.499Z,52.00
2018-02-14T08:45:01.774Z,52.10
2018-02-14T08:47:31.161Z,52.00
2018-02-14T08:50:01.183Z,52.00
2018-02-14T08:52:29.596Z,52.10
2018-02-14T08:54:58.227Z,52.00
2018-02-14T08:57:26.649Z,52.00
2018-02-14T08:59:54.980Z,52.00
2018-02-14T09:02:23.251Z,52.00
2018-02-14T09:04:51.574Z,52.00
2018-02-14T09:07:21.664Z,51.90
2018-02-14T09:09:50.026Z,51.90
2018-02-14T09:12:18.402Z,51.80
2018-02-14T09:14:46.749Z,51.90
2018-02-14T09:17:15.792Z,51.70
2018-02-14T09:19:44.096Z,51.70
2018-02-14T09:22:13.158Z,51.60
2018-02-14T09:24:41.434Z,51.60
2018-02-14T09:27:09.711Z,51.60
2018-02-14T09:29:38.005Z,51.60
2018-02-14T09:32:06.305Z,51.60
2018-02-14T09:34:34.581Z,51.60
2018-02-14T09:37:03.778Z,51.80
2018-02-14T09:39:32.039Z,51.60
2018-02-14T09:42:00.374Z,51.60
2018-02-14T09:44:28.680Z,51.60
2018-02-14T09:46:57.733Z,51.30
2018-02-14T09:49:26.061Z,51.30
2018-02-14T09:51:54.349Z,51.30
2018-02-14T09:54:22.729Z,51.40
2018-02-14T09:56:51.013Z,51.40
2018-02-14T09:59:20.074Z,51.30
2018-02-14T10:01:48.375Z,51.30
2018-02-14T10:04:16.673Z,51.30
2018-02-14T10:06:44.957Z,51.30
2018-02-14T10:09:14.009Z,51.20
2018-02-14T10:11:42.404Z,51.80
2018-02-14T10:14:10.666Z,51.30
2018-02-14T10:16:39.018Z,51.30
2018-02-14T10:19:07.287Z,51.20
2018-02-14T10:21:35.559Z,51.10
2018-02-14T10:24:03.867Z,51.10
2018-02-14T10:26:32.193Z,51.00
2018-02-14T10:29:00.547Z,51.00
2018-02-14T10:31:28.867Z,51.00
2018-02-14T10:33:57.950Z,51.10
2018-02-14T10:36:26.244Z,51.10
2018-02-14T10:38:54.594Z,51.10
2018-02-14T10:41:22.971Z,51.20
2018-02-14T10:43:51.265Z,51.20
2018-02-14T10:46:20.322Z,51.10
2018-02-14T10:48:48.590Z,51.00
2018-02-14T10:51:16.903Z,50.90
2018-02-14T10:53:45.200Z,50.80
2018-02-14T10:56:14.288Z,50.90
2018-02-14T10:58:43.350Z,51.00
2018-02-14T11:01:17.533Z,51.00
2018-02-14T11:03:45.806Z,50.90
2018-02-14T11:06:14.145Z,50.80
2018-02-14T11:08:42.406Z,50.80
2018-02-14T11:11:10.712Z,50.80
2018-02-14T11:13:39.768Z,50.50
2018-02-14T11:16:08.083Z,50.50
2018-02-14T11:18:37.199Z,50.40
2018-02-14T11:21:05.497Z,50.40
2018-02-14T11:23:33.795Z,50.30
2018-02-14T11:26:02.086Z,50.20
2018-02-14T11:28:30.442Z,50.10
2018-02-14T11:30:58.729Z,50.10
2018-02-14T11:33:27.056Z,50.10
2018-02-14T11:35:56.359Z,50.50
2018-02-14T11:38:25.401Z,49.80
2018-02-14T11:40:53.714Z,49.60
2018-02-14T11:43:22.040Z,49.50
2018-02-14T11:45:51.074Z,49.30
2018-02-14T11:48:19.345Z,49.30
2018-02-14T11:50:47.633Z,49.10
2018-02-14T11:53:15.908Z,49.70
2018-02-14T11:55:44.249Z,50.40
2018-02-14T11:58:14.406Z,49.70
2018-02-14T12:00:42.733Z,49.70
2018-02-14T12:03:11.818Z,47.90
2018-02-14T12:05:40.899Z,46.50
2018-02-14T12:08:09.184Z,46.40
2018-02-14T12:10:37.513Z,45.50
2018-02-14T12:13:05.816Z,45.20
2018-02-14T12:15:34.126Z,44.20
2018-02-14T12:18:03.228Z,43.70
2018-02-14T12:20:31.502Z,43.70
2018-02-14T12:23:00.684Z,43.20
2018-02-14T12:25:28.987Z,43.20
2018-02-14T12:27:57.309Z,43.00
2018-02-14T12:30:25.616Z,41.80
2018-02-14T12:32:54.235Z,42.50
2018-02-14T12:35:22.537Z,42.60
2018-02-14T12:37:50.830Z,41.20
2018-02-14T12:40:19.139Z,42.30
2018-02-14T12:42:47.518Z,42.10
2018-02-14T12:45:15.819Z,40.90
2018-02-14T12:47:44.852Z,38.30
2018-02-14T12:50:13.161Z,38.20
2018-02-14T12:52:41.444Z,37.50
2018-02-14T12:55:09.752Z,36.40
2018-02-14T12:57:38.814Z,33.70
2018-02-14T13:00:07.100Z,33.70
2018-02-14T13:02:35.467Z,31.60
2018-02-14T13:05:03.771Z,31.10
2018-02-14T13:07:32.073Z,31.90
2018-02-14T13:10:00.370Z,32.30
2018-02-14T13:12:28.676Z,31.00
2018-02-14T13:14:57.008Z,31.40
2018-02-14T13:17:26.127Z,30.80
2018-02-14T13:19:54.408Z,30.70
2018-02-14T13:22:22.697Z,29.60
2018-02-14T13:24:51.011Z,28.90
2018-02-14T13:27:19.326Z,28.00
2018-02-14T13:29:47.636Z,27.20
2018-02-14T13:32:15.906Z,27.40
2018-02-14T13:34:44.253Z,27.80
2018-02-14T13:37:12.534Z,28.00
2018-02-14T13:39:41.638Z,29.30
2018-02-14T13:42:09.926Z,29.00
2018-02-14T13:44:38.211Z,29.40
2018-02-14T13:47:06.534Z,29.50
2018-02-14T13:49:34.837Z,29.70
2018-02-14T13:52:03.894Z,30.00
2018-02-14T13:54:32.174Z,30.00
2018-02-14T13:57:00.485Z,30.10
2018-02-14T13:59:28.768Z,30.20
2018-02-14T14:01:57.441Z,31.50
2018-02-14T14:04:25.720Z,31.60
2018-02-14T14:06:53.990Z,31.60
2018-02-14T14:09:23.047Z,32.70
2018-02-14T14:11:51.334Z,32.20
2018-02-14T14:14:19.647Z,32.60
2018-02-14T14:16:48.676Z,33.10
2018-02-14T14:19:16.991Z,33.20
2018-02-14T14:21:45.254Z,33.40
2018-02-14T14:24:13.550Z,33.60
2018-02-14T14:26:41.809Z,33.70
2018-02-14T14:29:12.937Z,33.90
2018-02-14T14:31:41.245Z,34.20
2018-02-14T14:34:09.691Z,34.50
2018-02-14T14:36:38.013Z,34.50
2018-02-14T14:39:06.334Z,34.70
2018-02-14T14:41:34.634Z,34.80
2018-02-14T14:44:02.916Z,34.90
2018-02-14T14:46:31.213Z,35.10
2018-02-14T14:48:59.487Z,35.20
2018-02-14T14:51:27.763Z,35.30
2018-02-14T14:53:56.155Z,35.50
2018-02-14T14:56:24.752Z,35.60
2018-02-14T14:58:53.027Z,35.60
2018-02-14T15:01:21.289Z,35.60
2018-02-14T15:03:49.837Z,35.40
2018-02-14T15:06:18.137Z,36.00
2018-02-14T15:08:46.427Z,35.30
2018-02-14T15:11:14.715Z,35.20
2018-02-14T15:13:42.980Z,35.20
2018-02-14T15:16:11.302Z,35.30
2018-02-14T15:18:40.365Z,35.30
2018-02-14T15:21:08.673Z,35.30
2018-02-14T15:23:37.726Z,35.40
2018-02-14T15:26:06.014Z,35.50
2018-02-14T15:28:34.364Z,35.50
2018-02-14T15:31:03.423Z,35.70
2018-02-14T15:33:32.510Z,35.70
2018-02-14T15:36:00.789Z,35.70
2018-02-14T15:38:29.888Z,36.00
2018-02-14T15:40:58.946Z,36.20
2018-02-14T15:43:27.259Z,36.20
2018-02-14T15:45:55.558Z,36.20
2018-02-14T15:48:23.842Z,36.40
2018-02-14T15:50:52.134Z,36.60
2018-02-14T15:53:20.402Z,36.60
2018-02-14T15:55:49.461Z,36.70
2018-02-14T15:58:18.536Z,36.80
2018-02-14T16:00:46.834Z,36.70
2018-02-14T16:03:15.129Z,36.90
2018-02-14T16:05:44.210Z,37.00
2018-02-14T16:08:12.527Z,37.00
2018-02-14T16:10:40.855Z,37.00
2018-02-14T16:13:09.154Z,37.00
2018-02-14T16:15:38.199Z,37.00
2018-02-14T16:18:06.908Z,37.00
2018-02-14T16:20:35.298Z,37.10
2018-02-14T16:23:03.731Z,37.10
2018-02-14T16:25:32.323Z,37.00
2018-02-14T16:28:00.646Z,37.00
2018-02-14T16:30:28.942Z,37.10
2018-02-14T16:32:57.975Z,37.10
2018-02-14T16:35:26.308Z,37.10
2018-02-14T16:47:32.290Z,37.30
2018-02-14T16:52:55.590Z,37.50
2018-02-14T16:55:24.259Z,37.60
2018-02-14T16:57:52.578Z,37.60
2018-02-14T17:00:20.929Z,37.80
2018-02-14T17:02:57.876Z,37.80
2018-02-14T17:05:26.338Z,37.90
2018-02-14T17:07:55.429Z,38.00
2018-02-14T17:10:24.631Z,38.10
2018-02-14T17:12:55.912Z,38.10
2018-02-14T17:15:38.069Z,38.30
2018-02-14T17:18:06.409Z,38.20
2018-02-14T17:20:35.520Z,38.40
2018-02-14T17:23:03.817Z,38.40
2018-02-14T17:25:32.167Z,38.60
2018-02-14T17:28:00.561Z,38.70
2018-02-14T17:30:28.896Z,38.90
2018-02-14T17:32:57.334Z,38.80
2018-02-14T17:35:25.698Z,39.60
2018-02-14T17:37:54.991Z,39.00
2018-02-14T17:40:23.305Z,39.10
2018-02-14T17:42:54.344Z,39.20
2018-02-14T17:45:22.704Z,39.20
2018-02-14T17:47:51.067Z,39.30
2018-02-14T17:50:19.388Z,39.30
2018-02-14T17:52:48.488Z,40.00
2018-02-14T17:55:18.245Z,40.10
2018-02-14T17:57:46.579Z,39.60
2018-02-14T18:00:15.676Z,40.00
2018-02-14T18:02:44.041Z,39.80
2018-02-14T18:05:12.320Z,40.00
2018-02-14T18:07:41.516Z,40.00
2018-02-14T18:10:10.486Z,40.20
2018-02-14T18:12:38.776Z,40.20
2018-02-14T18:15:07.203Z,40.30
2018-02-14T18:17:35.576Z,40.40
2018-02-14T18:20:22.667Z,40.50
2018-02-14T18:22:51.044Z,40.60
2018-02-14T18:25:20.526Z,40.60
2018-02-14T18:27:48.915Z,40.80
2018-02-14T18:30:17.515Z,40.90
2018-02-14T18:32:45.813Z,41.00
2018-02-14T18:35:20.732Z,41.00
2018-02-14T18:37:49.134Z,41.20
2018-02-14T18:40:18.357Z,41.20
2018-02-14T18:43:06.063Z,42.00
2018-02-14T18:45:34.441Z,41.40
2018-02-14T18:48:03.621Z,42.00
2018-02-14T18:50:31.989Z,41.50
2018-02-14T18:53:06.954Z,41.60
2018-02-14T18:55:38.118Z,41.60
2018-02-14T18:58:06.593Z,41.60
2018-02-14T19:00:34.898Z,41.70
2018-02-14T19:03:04.530Z,41.70
2018-02-14T19:05:49.154Z,41.80
2018-02-14T19:11:23.972Z,41.90
2018-02-14T19:13:56.654Z,42.00
2018-02-14T19:16:26.058Z,42.00
2018-02-14T19:19:02.795Z,42.50
2018-02-14T19:21:31.286Z,42.20
2018-02-14T19:24:00.702Z,42.30
2018-02-14T19:26:29.081Z,42.30
2018-02-14T19:31:32.906Z,42.30
2018-02-14T19:34:13.270Z,42.40
2018-02-14T19:36:42.736Z,42.40
2018-02-14T19:39:11.223Z,42.60
2018-02-14T19:41:39.660Z,43.20
2018-02-14T19:44:08.925Z,42.60
2018-02-14T19:46:38.558Z,42.70
2018-02-14T19:49:13.312Z,42.80
2018-02-14T19:51:42.486Z,42.70
2018-02-14T19:54:10.928Z,42.70
2018-02-14T19:56:39.660Z,43.00
2018-02-14T19:59:08.261Z,42.80
2018-02-14T20:01:36.769Z,43.00
2018-02-14T20:04:05.240Z,43.10
2018-02-14T20:06:34.378Z,42.90
2018-02-14T20:09:02.926Z,43.00
2018-02-14T20:11:31.425Z,43.10
2018-02-14T20:13:59.770Z,43.10
2018-02-14T20:16:28.094Z,43.30
2018-02-14T20:18:56.464Z,43.60
2018-02-14T20:21:25.209Z,43.70
2018-02-14T20:23:54.838Z,43.80
2018-02-14T20:26:23.966Z,43.50
2018-02-14T20:28:52.290Z,43.70
2018-02-14T20:31:20.629Z,43.60
2018-02-14T20:33:48.949Z,43.70
2018-02-14T20:36:17.679Z,43.60
2018-02-14T20:38:46.064Z,43.70
2018-02-14T20:41:14.354Z,43.70
2018-02-14T20:43:42.801Z,43.70
2018-02-14T20:46:11.362Z,43.70
2018-02-14T20:48:40.780Z,43.80
2018-02-14T20:51:13.695Z,44.30
2018-02-14T20:53:42.726Z,44.20
2018-02-14T20:56:11.934Z,44.40
2018-02-14T20:58:41.153Z,44.40
2018-02-14T21:01:10.413Z,44.50
2018-02-14T21:03:38.883Z,44.80
2018-02-14T21:06:07.469Z,44.80
2018-02-14T21:08:36.590Z,45.00
2018-02-14T21:11:05.411Z,45.00
2018-02-14T21:13:33.976Z,45.30
2018-02-14T21:16:02.286Z,45.30
2018-02-14T21:18:31.892Z,45.20
2018-02-14T21:21:01.038Z,45.20
2018-02-14T21:23:29.448Z,45.20
2018-02-14T21:25:58.456Z,45.50
2018-02-14T21:28:26.860Z,45.70
2018-02-14T21:30:56.701Z,45.80
2018-02-14T21:33:25.059Z,46.00
2018-02-14T21:35:53.464Z,46.20
2018-02-14T21:38:21.893Z,46.10
2018-02-14T21:40:51.381Z,46.30
2018-02-14T21:43:19.667Z,46.60
2018-02-14T21:45:47.987Z,46.50
2018-02-14T21:48:16.276Z,46.50
2018-02-14T21:50:45.365Z,46.60
2018-02-14T21:53:13.799Z,46.60
2018-02-14T21:55:42.107Z,46.70
2018-02-14T21:58:10.474Z,46.80
2018-02-14T22:00:39.610Z,46.90
2018-02-14T22:03:07.908Z,46.90
2018-02-14T22:05:36.190Z,46.80
2018-02-14T22:08:08.302Z,46.90
2018-02-14T22:10:37.396Z,47.40
2018-02-14T22:13:05.935Z,47.30
2018-02-14T22:15:34.288Z,47.40
2018-02-14T22:18:02.649Z,47.60
2018-02-14T22:23:26.329Z,47.60
2018-02-14T22:25:55.535Z,47.50
2018-02-14T22:28:24.570Z,47.60
2018-02-14T22:30:52.880Z,47.60
2018-02-14T22:33:21.201Z,47.60
2018-02-14T22:35:49.523Z,47.70
2018-02-14T22:38:18.171Z,47.90
2018-02-14T22:40:46.462Z,47.90
2018-02-14T22:43:14.783Z,48.10
2018-02-14T22:45:43.593Z,48.10
2018-02-14T22:48:12.654Z,48.30
2018-02-14T22:50:40.954Z,48.30
2018-02-14T22:53:09.253Z,48.30
2018-02-14T22:55:38.281Z,48.40
2018-02-14T22:58:06.606Z,48.40
2018-02-14T23:00:35.690Z,48.50
2018-02-14T23:03:05.068Z,48.50
2018-02-14T23:05:37.213Z,48.50
2018-02-14T23:08:05.540Z,48.40
2018-02-14T23:10:33.855Z,48.50
2018-02-14T23:13:02.141Z,48.60
2018-02-14T23:15:30.459Z,48.60
2018-02-14T23:17:58.739Z,48.60
2018-02-14T23:20:28.152Z,48.60
2018-02-14T23:22:56.421Z,48.70
2018-02-14T23:25:27.770Z,48.70
2018-02-14T23:27:56.088Z,48.60
2018-02-14T23:30:26.288Z,48.70
2018-02-14T23:32:54.580Z,48.70
2018-02-14T23:35:23.620Z,48.70
2018-02-14T23:37:51.916Z,48.70
2018-02-14T23:40:21.144Z,48.80
2018-02-14T23:42:50.224Z,48.80
2018-02-14T23:45:20.186Z,48.80
2018-02-14T23:47:48.491Z,48.80
2018-02-14T23:50:18.598Z,48.80
2018-02-14T23:52:46.897Z,48.80
2018-02-14T23:55:15.187Z,48.80
2018-02-14T23:57:43.576Z,48.80
